Time;durP1;ratioP1;P1;durP2;ratioP2;P2;SDS_P1;SDS_P2;PMS_P1;PMS_P2;Temp;Humidity;BMP_temperature;BMP_pressure;BME280_temperature;BME280_humidity;BME280_pressure;Samples;Min_cycle;Max_cycle;Signal;HPM_P1;HPM_P2
2022/09/29 00:00:53;;;;;;;8.37;7.77;;;6.50;99.90;;;;;;5050991;28;20213;-75
2022/09/29 00:03:21;;;;;;;9.27;8.47;;;6.40;99.90;;;;;;5051065;28;20185;-76
2022/09/29 00:05:51;;;;;;;11.33;10.43;;;6.40;99.90;;;;;;5049918;28;20189;-76
2022/09/29 00:08:18;;;;;;;15.07;13.97;;;6.40;99.90;;;;;;5049403;28;20209;-76
2022/09/29 00:10:44;;;;;;;30.47;28.23;;;6.30;99.90;;;;;;5049269;28;20215;-75
2022/09/29 00:13:12;;;;;;;22.43;20.93;;;6.40;99.90;;;;;;5051014;28;20197;-75
2022/09/29 00:15:38;;;;;;;19.87;18.57;;;6.40;99.90;;;;;;5050971;28;20178;-76
2022/09/29 00:18:04;;;;;;;25.47;24.03;;;6.50;99.90;;;;;;5050500;28;20190;-75
2022/09/29 00:20:32;;;;;;;19.47;18.23;;;6.50;99.90;;;;;;5049621;28;20233;-75
2022/09/29 00:22:57;;;;;;;18.97;17.67;;;6.50;99.90;;;;;;5050832;28;20259;-75
2022/09/29 00:25:24;;;;;;;19.80;18.50;;;6.50;99.90;;;;;;5050924;28;20197;-75
2022/09/29 00:27:49;;;;;;;18.47;17.17;;;6.50;99.90;;;;;;5050321;28;20565;-75
2022/09/29 00:30:15;;;;;;;17.53;16.47;;;6.60;99.90;;;;;;5050665;28;20690;-76
2022/09/29 00:32:41;;;;;;;20.97;19.83;;;6.60;99.90;;;;;;5049620;28;20186;-76
2022/09/29 00:35:09;;;;;;;19.40;17.97;;;6.70;99.90;;;;;;5049557;28;20193;-75
2022/09/29 00:37:35;;;;;;;23.67;22.23;;;6.70;99.90;;;;;;5049171;28;20236;-75
2022/09/29 00:40:03;;;;;;;22.10;20.67;;;6.70;99.90;;;;;;5049677;28;20244;-76
2022/09/29 00:42:30;;;;;;;40.07;37.40;;;6.70;99.90;;;;;;5049553;28;20225;-76
2022/09/29 00:44:59;;;;;;;22.87;21.40;;;6.80;99.90;;;;;;5050746;28;20605;-76
2022/09/29 00:47:25;;;;;;;8.70;7.97;;;6.80;99.90;;;;;;5050411;28;20174;-76
2022/09/29 00:49:58;;;;;;;8.33;7.73;;;6.80;99.90;;;;;;5049430;28;20194;-75
2022/09/29 00:52:30;;;;;;;9.60;8.90;;;6.80;99.90;;;;;;5050557;28;20289;-76
2022/09/29 00:55:23;;;;;;;8.77;7.97;;;6.80;99.90;;;;;;5050584;28;20185;-76
2022/09/29 00:58:04;;;;;;;9.50;8.80;;;6.80;99.90;;;;;;5046926;28;20194;-76
2022/09/29 01:00:31;;;;;;;10.03;9.27;;;6.90;99.90;;;;;;5049302;28;20224;-76
2022/09/29 01:03:03;;;;;;;10.77;9.77;;;6.80;99.90;;;;;;5049426;28;20178;-76
2022/09/29 01:05:42;;;;;;;12.33;11.10;;;6.90;99.90;;;;;;5050525;28;20210;-76
2022/09/29 01:08:23;;;;;;;11.63;10.73;;;6.90;99.90;;;;;;5050022;28;20287;-75
2022/09/29 01:10:51;;;;;;;16.20;11.53;;;6.80;99.90;;;;;;5049331;28;20209;-75
2022/09/29 01:13:17;;;;;;;13.00;11.80;;;6.80;99.90;;;;;;5049502;28;20185;-76
2022/09/29 01:15:43;;;;;;;13.17;12.07;;;6.80;99.90;;;;;;5050696;28;20186;-76
2022/09/29 01:18:09;;;;;;;13.37;12.27;;;6.90;99.90;;;;;;5049125;28;20239;-76
2022/09/29 01:20:47;;;;;;;12.27;11.10;;;6.90;99.90;;;;;;5051320;28;20240;-75
2022/09/29 01:23:34;;;;;;;12.50;11.20;;;6.80;99.90;;;;;;5054662;28;20584;-75
2022/09/29 01:26:42;;;;;;;12.47;11.27;;;6.80;99.90;;;;;;5054248;28;20178;-76
2022/09/29 01:29:20;;;;;;;11.27;10.20;;;6.90;99.90;;;;;;5014499;28;20214;-76
2022/09/29 01:32:16;;;;;;;12.67;11.73;;;6.80;99.90;;;;;;5014901;28;20187;-76
2022/09/29 01:34:48;;;;;;;11.93;11.10;;;6.80;99.90;;;;;;5048898;28;20671;-76
2022/09/29 01:37:31;;;;;;;11.47;10.37;;;6.80;99.90;;;;;;5052305;28;20290;-76
2022/09/29 01:40:08;;;;;;;11.23;10.23;;;6.80;99.90;;;;;;5053871;28;20699;-75
2022/09/29 01:43:03;;;;;;;10.50;9.60;;;6.90;99.90;;;;;;5052600;28;20182;-76
2022/09/29 01:45:32;;;;;;;9.23;8.53;;;6.90;99.90;;;;;;5045482;28;20190;-75
2022/09/29 01:48:16;;;;;;;10.83;9.80;;;6.90;99.90;;;;;;5052185;28;20207;-75
2022/09/29 01:50:50;;;;;;;10.97;9.93;;;7.00;99.90;;;;;;5053777;28;20202;-75
2022/09/29 01:53:26;;;;;;;10.93;9.73;;;7.00;99.90;;;;;;5052766;28;20186;-75
2022/09/29 01:55:57;;;;;;;11.27;10.33;;;7.00;99.90;;;;;;5053544;28;20178;-76
2022/09/29 01:58:48;;;;;;;12.10;11.20;;;7.00;99.90;;;;;;5051683;28;20185;-76
2022/09/29 02:01:19;;;;;;;10.33;9.60;;;7.00;99.90;;;;;;5046611;28;20225;-76
2022/09/29 02:04:01;;;;;;;12.60;11.60;;;7.00;99.90;;;;;;5052389;28;20221;-75
2022/09/29 02:07:03;;;;;;;11.83;9.93;;;7.00;99.90;;;;;;5052152;28;20661;-76
2022/09/29 02:09:34;;;;;;;10.80;9.80;;;7.10;99.90;;;;;;5053166;28;20589;-75
2022/09/29 02:12:04;;;;;;;13.37;12.10;;;7.10;99.90;;;;;;5051549;28;20190;-76
2022/09/29 02:14:36;;;;;;;13.23;12.07;;;7.10;99.90;;;;;;5051987;28;20666;-76
2022/09/29 02:17:23;;;;;;;13.37;12.30;;;7.10;99.90;;;;;;5052994;28;20235;-76
2022/09/29 02:19:51;;;;;;;14.10;13.10;;;7.10;99.90;;;;;;5052782;28;20676;-76
2022/09/29 02:22:17;;;;;;;11.77;10.97;;;7.10;99.90;;;;;;5053403;28;20258;-75
2022/09/29 02:24:43;;;;;;;11.33;10.37;;;7.10;99.90;;;;;;5052819;28;20178;-75
2022/09/29 02:27:10;;;;;;;11.13;10.13;;;7.10;99.90;;;;;;5052708;28;20226;-76
2022/09/29 02:29:37;;;;;;;11.73;10.13;;;7.20;99.90;;;;;;5052623;28;20240;-76
2022/09/29 02:32:04;;;;;;;10.33;9.53;;;7.20;99.90;;;;;;5051516;28;20185;-76
2022/09/29 02:34:33;;;;;;;9.97;9.17;;;7.20;99.90;;;;;;5051351;28;20178;-75
2022/09/29 02:37:20;;;;;;;12.07;10.83;;;7.20;99.90;;;;;;5051083;28;20669;-76
2022/09/29 02:40:14;;;;;;;9.67;8.60;;;7.20;99.90;;;;;;5052501;28;20237;-76
2022/09/29 02:43:05;;;;;;;9.20;8.50;;;7.20;99.90;;;;;;5052456;28;20182;-75
2022/09/29 02:46:04;;;;;;;9.57;8.77;;;7.20;99.90;;;;;;5052476;28;20175;-76
2022/09/29 02:48:43;;;;;;;9.50;8.70;;;7.20;99.90;;;;;;5052037;28;20309;-76
2022/09/29 02:51:27;;;;;;;10.23;8.93;;;7.20;99.90;;;;;;5052951;28;20189;-76
2022/09/29 02:54:16;;;;;;;9.50;8.67;;;7.20;99.90;;;;;;5052519;28;20228;-76
2022/09/29 02:56:57;;;;;;;9.47;7.87;;;7.30;99.90;;;;;;5052065;28;20236;-76
2022/09/29 02:59:36;;;;;;;14.03;13.10;;;7.30;99.90;;;;;;5051700;28;20626;-76
2022/09/29 03:02:02;;;;;;;24.77;23.13;;;7.20;99.90;;;;;;5052611;28;20201;-76
2022/09/29 03:04:28;;;;;;;26.07;24.47;;;7.20;99.90;;;;;;5050964;28;20206;-76
2022/09/29 03:06:54;;;;;;;44.27;41.73;;;7.20;99.90;;;;;;5050583;28;20182;-76
2022/09/29 03:09:20;;;;;;;39.90;37.67;;;7.20;99.90;;;;;;5050794;28;20202;-76
2022/09/29 03:11:46;;;;;;;27.43;25.90;;;7.20;99.90;;;;;;5050737;28;20182;-76
2022/09/29 03:14:12;;;;;;;35.90;33.87;;;7.30;99.90;;;;;;5052411;28;20177;-76
2022/09/29 03:16:39;;;;;;;42.20;39.50;;;7.30;99.90;;;;;;5051871;28;20533;-76
2022/09/29 03:19:06;;;;;;;42.50;40.10;;;7.30;99.90;;;;;;5050073;28;20240;-76
2022/09/29 03:21:32;;;;;;;39.50;37.33;;;7.20;99.90;;;;;;5050532;28;20270;-76
2022/09/29 03:23:58;;;;;;;42.20;39.77;;;7.30;99.90;;;;;;5051693;28;20261;-76
2022/09/29 03:26:24;;;;;;;39.67;37.47;;;7.30;99.90;;;;;;5051689;28;20182;-76
2022/09/29 03:28:51;;;;;;;36.47;34.37;;;7.20;99.90;;;;;;5049975;28;20557;-75
2022/09/29 03:31:18;;;;;;;22.67;21.23;;;7.20;99.90;;;;;;5050814;28;20179;-76
2022/09/29 03:33:44;;;;;;;12.90;12.10;;;7.20;99.90;;;;;;5050722;28;20548;-75
2022/09/29 03:36:12;;;;;;;12.83;11.93;;;7.20;99.90;;;;;;5050434;28;20186;-76
2022/09/29 03:38:38;;;;;;;13.73;12.53;;;7.10;99.90;;;;;;5051023;28;20206;-75
2022/09/29 03:41:05;;;;;;;13.97;12.97;;;7.00;99.90;;;;;;5051226;28;20533;-75
2022/09/29 03:43:31;;;;;;;29.40;27.63;;;6.90;99.90;;;;;;5051450;28;20182;-75
2022/09/29 03:45:57;;;;;;;42.07;39.47;;;6.80;99.90;;;;;;5050844;28;20212;-75
2022/09/29 03:48:24;;;;;;;24.73;23.20;;;6.80;99.90;;;;;;5051960;28;20178;-75
2022/09/29 03:50:52;;;;;;;10.93;10.03;;;6.70;99.90;;;;;;5052554;28;20614;-75
2022/09/29 03:53:18;;;;;;;12.80;11.70;;;6.70;99.90;;;;;;5051643;28;20174;-75
2022/09/29 03:55:48;;;;;;;14.97;14.10;;;6.60;99.90;;;;;;5051267;28;20265;-75
2022/09/29 03:58:14;;;;;;;19.03;17.80;;;6.50;99.90;;;;;;5050831;28;20185;-75
2022/09/29 04:00:40;;;;;;;13.83;10.83;;;6.50;99.90;;;;;;5051046;28;20252;-75
2022/09/29 04:03:06;;;;;;;10.07;9.07;;;6.40;99.90;;;;;;5051205;28;20216;-75
2022/09/29 04:05:37;;;;;;;10.27;9.27;;;6.40;99.90;;;;;;5051209;28;20310;-75
2022/09/29 04:08:04;;;;;;;9.50;8.67;;;6.40;99.90;;;;;;5050689;28;20655;-75
2022/09/29 04:10:32;;;;;;;8.77;8.10;;;6.30;99.90;;;;;;5049364;28;20683;-75
2022/09/29 04:12:58;;;;;;;18.83;17.40;;;6.30;99.90;;;;;;5050897;28;20182;-75
2022/09/29 04:15:24;;;;;;;23.60;21.97;;;6.20;99.90;;;;;;5049831;28;20185;-76
2022/09/29 04:17:50;;;;;;;10.00;7.90;;;6.10;99.90;;;;;;5050682;28;20193;-75
2022/09/29 04:20:15;;;;;;;8.87;8.07;;;6.10;99.90;;;;;;5071931;23;20785;-77
2022/09/29 04:22:41;;;;;;;12.07;11.13;;;6.00;99.90;;;;;;5052613;28;20245;-77
2022/09/29 04:25:07;;;;;;;21.17;19.70;;;6.00;99.90;;;;;;5052593;28;20186;-77
2022/09/29 04:27:33;;;;;;;31.20;29.07;;;6.00;99.90;;;;;;5052019;28;20651;-77
2022/09/29 04:29:59;;;;;;;32.77;30.87;;;5.90;99.90;;;;;;5052090;28;20255;-77
2022/09/29 04:32:25;;;;;;;23.43;21.93;;;5.90;99.90;;;;;;5060292;28;20186;-77
2022/09/29 04:34:51;;;;;;;33.57;31.40;;;5.80;99.90;;;;;;5053663;28;20211;-77
2022/09/29 04:37:17;;;;;;;22.20;20.80;;;5.80;99.90;;;;;;5052159;28;20190;-77
2022/09/29 04:39:43;;;;;;;37.10;34.60;;;5.80;99.90;;;;;;5050660;28;20598;-77
2022/09/29 04:42:09;;;;;;;31.70;29.70;;;5.90;99.90;;;;;;5052343;28;20178;-77
2022/09/29 04:44:35;;;;;;;25.37;23.90;;;5.90;99.90;;;;;;5051340;28;20170;-77
2022/09/29 04:47:01;;;;;;;23.10;21.63;;;5.90;99.90;;;;;;5050796;28;20647;-77
2022/09/29 04:49:27;;;;;;;19.33;17.63;;;5.90;99.90;;;;;;5052063;28;20217;-77
2022/09/29 04:51:54;;;;;;;13.93;12.50;;;5.90;99.90;;;;;;5052109;28;20183;-77
2022/09/29 04:54:19;;;;;;;13.07;12.07;;;6.00;99.90;;;;;;5051762;28;20252;-77
2022/09/29 04:56:48;;;;;;;13.13;9.80;;;6.00;99.90;;;;;;5054550;28;20190;-76
2022/09/29 04:59:13;;;;;;;13.03;11.73;;;6.00;99.90;;;;;;5058557;28;20210;-77
2022/09/29 05:01:39;;;;;;;13.10;11.90;;;6.10;99.90;;;;;;5060868;28;20182;-77
2022/09/29 05:04:07;;;;;;;13.60;12.50;;;6.10;99.90;;;;;;5054643;28;20178;-77
2022/09/29 05:06:38;;;;;;;14.97;13.67;;;6.10;99.90;;;;;;5054752;28;20178;-77
2022/09/29 05:09:07;;;;;;;13.50;12.40;;;6.10;99.90;;;;;;5060539;28;20560;-77
2022/09/29 05:11:34;;;;;;;14.37;13.07;;;6.10;99.90;;;;;;5063539;28;20181;-77
2022/09/29 05:14:00;;;;;;;14.97;13.80;;;6.10;99.90;;;;;;5058417;28;20178;-77
2022/09/29 05:16:28;;;;;;;19.33;17.70;;;6.10;99.90;;;;;;5058259;28;20187;-77
2022/09/29 05:18:54;;;;;;;127.70;119.53;;;6.10;99.90;;;;;;5055792;28;20283;-77
2022/09/29 05:21:20;;;;;;;23.23;18.47;;;6.20;99.90;;;;;;5056635;28;20206;-77
2022/09/29 05:23:46;;;;;;;48.87;16.33;;;6.20;99.90;;;;;;5057817;28;20549;-77
2022/09/29 05:26:12;;;;;;;32.07;19.87;;;6.20;99.90;;;;;;5066669;28;20178;-76
2022/09/29 05:28:43;;;;;;;58.83;23.47;;;6.20;99.90;;;;;;5056761;28;20251;-77
2022/09/29 05:31:09;;;;;;;39.00;36.33;;;6.20;99.90;;;;;;5056177;28;20202;-77
2022/09/29 05:33:36;;;;;;;64.10;27.90;;;6.20;99.90;;;;;;5056911;28;20175;-77
2022/09/29 05:36:06;;;;;;;33.27;20.17;;;6.30;99.90;;;;;;5057237;28;20193;-77
2022/09/29 05:38:34;;;;;;;34.83;20.10;;;6.30;99.90;;;;;;5056779;28;20182;-77
2022/09/29 05:41:04;;;;;;;26.57;18.47;;;6.40;99.90;;;;;;5056479;28;20198;-77
2022/09/29 05:43:30;;;;;;;28.70;19.40;;;6.50;99.90;;;;;;5054250;28;20444;-77
2022/09/29 05:46:01;;;;;;;33.97;30.57;;;6.50;99.90;;;;;;5054591;28;20545;-77
2022/09/29 05:48:29;;;;;;;35.87;33.63;;;6.60;99.90;;;;;;5052239;28;20529;-76
2022/09/29 05:50:55;;;;;;;17.90;16.30;;;6.60;99.90;;;;;;5052348;28;20190;-76
2022/09/29 05:53:21;;;;;;;16.07;14.73;;;6.60;99.90;;;;;;5053688;28;20186;-76
2022/09/29 05:55:47;;;;;;;18.10;16.70;;;6.70;99.90;;;;;;5052330;28;20274;-76
2022/09/29 05:58:13;;;;;;;18.17;16.77;;;6.70;99.90;;;;;;5051909;28;20202;-76
2022/09/29 06:00:39;;;;;;;27.80;25.97;;;6.70;99.90;;;;;;5052707;28;20253;-77
2022/09/29 06:03:05;;;;;;;26.90;25.00;;;6.80;99.90;;;;;;5054353;28;20178;-77
2022/09/29 06:05:31;;;;;;;19.47;17.93;;;6.80;99.90;;;;;;5052976;28;20171;-77
2022/09/29 06:07:57;;;;;;;15.00;13.97;;;6.80;99.90;;;;;;5054565;28;20603;-78
2022/09/29 06:10:23;;;;;;;16.80;15.30;;;6.80;99.90;;;;;;5052775;28;20205;-76
2022/09/29 06:12:49;;;;;;;15.73;14.23;;;6.90;99.90;;;;;;5053260;28;20265;-76
2022/09/29 06:15:15;;;;;;;13.93;12.73;;;6.90;99.90;;;;;;5053271;28;20265;-76
2022/09/29 06:17:40;;;;;;;9.80;8.90;;;7.00;99.90;;;;;;5053014;28;20420;-76
2022/09/29 06:20:08;;;;;;;30.30;28.63;;;7.10;99.90;;;;;;5051871;28;20214;-76
2022/09/29 06:22:33;;;;;;;37.93;35.60;;;7.20;99.90;;;;;;5051933;28;20182;-76
2022/09/29 06:24:59;;;;;;;50.20;47.43;;;7.20;99.90;;;;;;5051878;28;20711;-77
2022/09/29 06:27:25;;;;;;;25.90;23.90;;;7.40;99.90;;;;;;5051473;28;20261;-76
2022/09/29 06:29:51;;;;;;;25.40;23.93;;;7.40;99.90;;;;;;5053241;28;20344;-76
2022/09/29 06:32:17;;;;;;;28.80;26.77;;;7.50;99.90;;;;;;5051904;28;20255;-76
2022/09/29 06:37:36;;;;;;;11.70;10.73;;;7.70;99.90;;;;;;5041150;28;20190;-75
2022/09/29 06:40:04;;;;;;;12.53;11.40;;;7.80;99.90;;;;;;5052952;28;20222;-76
2022/09/29 06:42:30;;;;;;;13.27;12.37;;;7.90;99.90;;;;;;5052892;28;20207;-77
2022/09/29 06:44:56;;;;;;;14.00;13.10;;;8.00;99.90;;;;;;5051900;28;20202;-76
2022/09/29 06:47:22;;;;;;;17.63;16.43;;;8.10;99.90;;;;;;5051630;28;20177;-77
2022/09/29 06:49:49;;;;;;;31.20;29.47;;;8.20;99.90;;;;;;5052302;28;20202;-76
2022/09/29 06:52:15;;;;;;;35.40;33.40;;;8.40;99.90;;;;;;5052472;28;20189;-77
2022/09/29 06:54:42;;;;;;;16.33;15.23;;;8.60;99.90;;;;;;5052346;28;20528;-77
2022/09/29 06:57:08;;;;;;;9.80;9.17;;;8.90;99.90;;;;;;5052334;28;20179;-76
2022/09/29 06:59:35;;;;;;;14.97;14.13;;;9.10;99.90;;;;;;5052389;28;20640;-76
2022/09/29 07:02:01;;;;;;;20.13;18.73;;;9.20;99.90;;;;;;5052477;28;20214;-77
2022/09/29 07:04:26;;;;;;;34.53;32.13;;;9.40;99.90;;;;;;5051365;28;20182;-76
2022/09/29 07:06:52;;;;;;;29.20;27.13;;;9.40;99.90;;;;;;5050825;28;20647;-76
2022/09/29 07:09:19;;;;;;;24.13;22.43;;;9.40;99.90;;;;;;5051173;28;20190;-76
2022/09/29 07:11:47;;;;;;;16.23;15.23;;;9.40;99.90;;;;;;5051303;28;20210;-76
2022/09/29 07:14:18;;;;;;;17.73;16.63;;;9.40;99.90;;;;;;5051135;28;20187;-76
2022/09/29 07:16:47;;;;;;;17.10;15.37;;;9.50;99.90;;;;;;5063077;28;20189;-75
2022/09/29 07:19:13;;;;;;;16.57;15.47;;;9.60;99.90;;;;;;5050005;28;20733;-76
2022/09/29 07:21:40;;;;;;;13.80;13.00;;;9.70;99.90;;;;;;5050923;28;20647;-75
2022/09/29 07:24:06;;;;;;;10.97;10.23;;;9.90;99.90;;;;;;5052197;28;20185;-76
2022/09/29 07:26:33;;;;;;;8.50;7.77;;;10.00;99.90;;;;;;5050879;28;20179;-76
2022/09/29 07:28:59;;;;;;;11.20;10.33;;;10.00;99.90;;;;;;5050317;28;20657;-76
2022/09/29 07:31:26;;;;;;;31.43;29.83;;;10.10;99.90;;;;;;5051726;28;20198;-77
2022/09/29 07:33:53;;;;;;;33.40;31.20;;;10.10;99.90;;;;;;5051661;28;20186;-76
2022/09/29 07:36:20;;;;;;;24.33;22.53;;;10.10;99.90;;;;;;5050575;28;20655;-76
2022/09/29 07:38:50;;;;;;;47.83;45.13;;;10.20;99.90;;;;;;5051268;28;20566;-75
2022/09/29 07:41:20;;;;;;;104.27;98.77;;;10.30;99.90;;;;;;5051578;28;20199;-76
2022/09/29 07:43:46;;;;;;;86.23;81.60;;;10.50;99.90;;;;;;5050394;28;20189;-76
2022/09/29 07:46:12;;;;;;;73.57;69.87;;;10.40;99.90;;;;;;5051593;28;20785;-77
2022/09/29 07:48:38;;;;;;;36.80;34.80;;;10.60;99.90;;;;;;5051613;28;20264;-76
2022/09/29 07:51:16;;;;;;;13.30;12.47;;;10.80;99.90;;;;;;5050439;28;20285;-76
2022/09/29 07:53:42;;;;;;;8.43;7.70;;;10.90;99.90;;;;;;5050271;28;20262;-76
2022/09/29 07:56:10;;;;;;;7.67;6.93;;;11.10;99.90;;;;;;5051321;28;20270;-76
2022/09/29 07:58:37;;;;;;;7.13;6.43;;;11.40;99.90;;;;;;5049671;28;20651;-76
2022/09/29 08:01:06;;;;;;;12.33;11.13;;;11.60;99.90;;;;;;5049868;28;20206;-76
2022/09/29 08:03:32;;;;;;;16.17;14.83;;;11.90;99.90;;;;;;5051166;28;20207;-76
2022/09/29 08:05:58;;;;;;;12.97;12.07;;;12.10;99.90;;;;;;5051039;28;20172;-77
2022/09/29 08:08:25;;;;;;;12.47;11.40;;;12.10;99.90;;;;;;5050670;28;20546;-77
2022/09/29 08:10:51;;;;;;;12.43;11.73;;;12.00;99.90;;;;;;5051115;28;20763;-77
2022/09/29 08:13:17;;;;;;;12.67;11.43;;;11.90;99.90;;;;;;5049992;28;20186;-77
2022/09/29 08:15:43;;;;;;;13.70;12.97;;;12.00;99.90;;;;;;5051529;28;20185;-77
2022/09/29 08:18:09;;;;;;;12.70;11.77;;;12.10;99.90;;;;;;5051099;28;20189;-77
2022/09/29 08:20:35;;;;;;;13.03;12.13;;;12.30;99.90;;;;;;5051024;28;20216;-77
2022/09/29 08:23:01;;;;;;;9.30;8.70;;;12.50;99.90;;;;;;5051426;28;20181;-77
2022/09/29 08:25:27;;;;;;;7.93;7.43;;;12.60;99.90;;;;;;5050164;28;20178;-77
2022/09/29 08:27:53;;;;;;;7.77;6.30;;;12.60;99.90;;;;;;5049874;28;20182;-77
2022/09/29 08:30:21;;;;;;;5.90;5.50;;;12.70;99.90;;;;;;5050468;28;20230;-77
2022/09/29 08:32:51;;;;;;;5.67;5.27;;;12.80;99.90;;;;;;5050560;28;20216;-77
2022/09/29 08:35:17;;;;;;;6.40;5.80;;;12.80;99.90;;;;;;5051031;28;20215;-77
2022/09/29 08:37:44;;;;;;;7.47;5.30;;;12.80;99.90;;;;;;5049326;28;20678;-77
2022/09/29 08:40:10;;;;;;;5.43;5.03;;;12.90;99.90;;;;;;5049515;28;20597;-77
2022/09/29 08:43:03;;;;;;;6.07;5.53;;;13.10;99.90;;;;;;5052287;28;20177;-78
2022/09/29 08:45:38;;;;;;;6.43;5.80;;;13.10;99.90;;;;;;5050216;28;20182;-76
2022/09/29 08:48:12;;;;;;;6.13;5.70;;;13.10;99.90;;;;;;5050929;28;20195;-77
2022/09/29 08:51:04;;;;;;;7.50;6.20;;;13.10;99.90;;;;;;5049667;28;20285;-77
2022/09/29 08:53:35;;;;;;;7.43;5.87;;;13.30;99.90;;;;;;5052225;28;20217;-78
2022/09/29 08:56:04;;;;;;;7.13;6.53;;;13.50;99.90;;;;;;5053557;28;20201;-78
2022/09/29 08:58:32;;;;;;;8.23;7.53;;;13.80;99.90;;;;;;5054481;28;20242;-78
2022/09/29 09:01:19;;;;;;;13.37;12.57;;;13.90;99.90;;;;;;5054870;28;20210;-78
2022/09/29 09:03:55;;;;;;;8.90;8.23;;;13.90;99.90;;;;;;5063551;28;20170;-78
2022/09/29 09:06:42;;;;;;;14.10;13.07;;;14.00;99.90;;;;;;5066132;28;20182;-76
2022/09/29 09:10:02;;;;;;;13.70;12.70;;;14.40;99.90;;;;;;5057803;28;20186;-77
2022/09/29 09:12:47;;;;;;;11.37;10.40;;;14.90;99.90;;;;;;5011793;28;20191;-76
2022/09/29 09:15:54;;;;;;;6.87;6.37;;;15.40;99.90;;;;;;5049369;28;20592;-77
2022/09/29 09:18:21;;;;;;;8.63;8.03;;;16.30;99.90;;;;;;5040433;28;20186;-77
2022/09/29 09:20:58;;;;;;;8.00;7.50;;;16.80;99.90;;;;;;5049022;28;20218;-77
2022/09/29 09:23:54;;;;;;;17.00;16.03;;;16.90;99.90;;;;;;5050403;28;20650;-77
2022/09/29 09:26:31;;;;;;;21.10;19.90;;;17.00;99.90;;;;;;5034291;28;20582;-76
2022/09/29 09:29:03;;;;;;;27.77;26.13;;;17.10;99.90;;;;;;5048872;28;20186;-77
2022/09/29 09:32:09;;;;;;;19.37;18.37;;;17.30;99.90;;;;;;5049144;28;20203;-77
2022/09/29 09:34:39;;;;;;;22.10;20.67;;;16.90;99.90;;;;;;5047142;28;20276;-77
2022/09/29 09:37:10;;;;;;;19.67;18.67;;;16.80;99.90;;;;;;5049133;28;20313;-78
2022/09/29 09:39:55;;;;;;;22.63;21.33;;;16.80;99.90;;;;;;5049145;28;20222;-77
2022/09/29 09:42:29;;;;;;;25.80;24.53;;;16.50;99.90;;;;;;5050630;28;20182;-77
2022/09/29 09:45:22;;;;;;;20.50;19.17;;;16.50;99.90;;;;;;5053823;28;20175;-77
2022/09/29 09:47:54;;;;;;;21.73;20.53;;;16.20;99.90;;;;;;5049481;28;20186;-76
2022/09/29 09:50:24;;;;;;;20.70;19.60;;;16.20;99.90;;;;;;5053903;28;20297;-77
2022/09/29 09:52:50;;;;;;;20.30;19.23;;;16.00;99.90;;;;;;5053942;28;20190;-77
2022/09/29 09:55:26;;;;;;;12.13;11.57;;;16.00;99.90;;;;;;5052989;28;20552;-77
2022/09/29 09:58:24;;;;;;;13.17;12.43;;;16.10;99.90;;;;;;5053456;28;20196;-77
2022/09/29 10:00:57;;;;;;;6.87;6.50;;;16.20;99.90;;;;;;5055195;28;20242;-77
2022/09/29 10:03:23;;;;;;;5.10;4.80;;;16.50;99.90;;;;;;5064255;28;20178;-78
2022/09/29 10:05:49;;;;;;;5.27;4.97;;;16.60;99.90;;;;;;5064883;28;20175;-77
2022/09/29 10:08:28;;;;;;;5.23;4.93;;;16.60;99.90;;;;;;5064978;28;20189;-78
2022/09/29 10:10:55;;;;;;;7.97;7.30;;;16.50;99.90;;;;;;5061048;28;20225;-78
2022/09/29 10:13:27;;;;;;;6.07;5.57;;;16.40;99.90;;;;;;5056261;28;20185;-78
2022/09/29 10:16:18;;;;;;;5.63;5.33;;;16.50;99.90;;;;;;5057015;28;20279;-77
2022/09/29 10:18:51;;;;;;;8.20;7.80;;;16.40;99.90;;;;;;5055604;28;20186;-78
2022/09/29 10:21:36;;;;;;;5.60;4.53;;;16.50;99.90;;;;;;5055591;22;20334;-76
2022/09/29 10:24:05;;;;;;;8.33;5.90;;;16.70;99.90;;;;;;5032913;28;20182;-76
2022/09/29 10:26:42;;;;;;;6.13;5.73;;;16.90;99.90;;;;;;5031706;28;20218;-76
2022/09/29 10:29:32;;;;;;;5.97;5.67;;;16.90;99.90;;;;;;5032587;28;20217;-76
2022/09/29 10:32:03;;;;;;;5.00;4.70;;;17.50;99.90;;;;;;5011672;28;20675;-76
2022/09/29 10:34:30;;;;;;;4.70;4.30;;;17.90;99.90;;;;;;5012989;28;20194;-76
2022/09/29 10:37:01;;;;;;;4.97;4.70;;;18.10;99.90;;;;;;5011437;28;20179;-77
2022/09/29 10:39:44;;;;;;;6.70;4.87;;;18.40;99.90;;;;;;5011420;28;20217;-77
2022/09/29 10:42:23;;;;;;;4.73;4.50;;;18.20;99.90;;;;;;5011285;28;20326;-76
2022/09/29 10:45:00;;;;;;;5.83;5.03;;;18.20;99.90;;;;;;5011675;28;20606;-76
2022/09/29 10:47:26;;;;;;;4.40;4.07;;;18.30;99.90;;;;;;5012188;28;20180;-77
2022/09/29 10:50:12;;;;;;;5.43;4.93;;;18.30;99.90;;;;;;5012449;28;20680;-76
2022/09/29 10:52:43;;;;;;;5.43;5.03;;;17.90;99.90;;;;;;5012536;28;20207;-76
2022/09/29 10:55:18;;;;;;;5.30;3.87;;;17.90;99.90;;;;;;5012394;28;20679;-76
2022/09/29 10:57:45;;;;;;;5.30;4.80;;;17.60;99.90;;;;;;5012122;28;20183;-76
2022/09/29 11:00:44;;;;;;;5.70;5.30;;;17.30;99.90;;;;;;5012351;28;20211;-76
2022/09/29 11:03:25;;;;;;;4.43;4.23;;;17.20;99.90;;;;;;4979465;28;20188;-76
2022/09/29 11:06:00;;;;;;;4.80;4.50;;;17.30;99.90;;;;;;5011346;28;20190;-76
2022/09/29 11:08:26;;;;;;;4.93;4.63;;;17.30;99.90;;;;;;5010654;28;20678;-76
2022/09/29 11:11:28;;;;;;;4.20;3.83;;;17.40;99.90;;;;;;5012177;28;20286;-76
2022/09/29 11:13:56;;;;;;;5.23;4.80;;;17.50;99.90;;;;;;5002409;28;20282;-76
2022/09/29 11:16:52;;;;;;;5.90;5.50;;;17.70;99.90;;;;;;5011178;28;20644;-76
2022/09/29 11:19:18;;;;;;;7.47;6.37;;;17.60;99.90;;;;;;5011026;28;20301;-77
2022/09/29 11:22:09;;;;;;;7.27;6.77;;;17.40;99.90;;;;;;5011709;28;20712;-76
2022/09/29 11:25:02;;;;;;;7.10;6.80;;;17.20;99.90;;;;;;5010754;28;20661;-76
2022/09/29 11:27:37;;;;;;;9.07;8.37;;;17.40;99.90;;;;;;5010300;28;20179;-76
2022/09/29 11:30:16;;;;;;;13.83;13.20;;;18.00;99.90;;;;;;5010658;28;20202;-76
2022/09/29 11:32:42;;;;;;;11.57;10.87;;;18.30;99.90;;;;;;5012234;28;20191;-76
2022/09/29 11:35:45;;;;;;;11.17;10.60;;;18.40;99.90;;;;;;5013460;28;20179;-76
2022/09/29 11:38:34;;;;;;;9.77;8.90;;;18.80;99.90;;;;;;5011866;28;20187;-76
2022/09/29 11:41:37;;;;;;;17.67;16.70;;;19.40;99.90;;;;;;5010448;28;20238;-77
2022/09/29 11:44:09;;;;;;;21.13;19.90;;;20.20;99.90;;;;;;5011707;28;20230;-76
2022/09/29 11:47:12;;;;;;;20.03;19.10;;;20.90;99.90;;;;;;5010492;28;20186;-77
2022/09/29 11:50:06;;;;;;;5.73;5.20;;;21.70;99.50;;;;;;5011492;28;20283;-77
2022/09/29 11:52:54;;;;;;;4.83;4.40;;;21.70;97.90;;;;;;5011536;28;20183;-77
2022/09/29 11:55:23;;;;;;;4.95;4.60;;;22.80;95.20;;;;;;5011298;28;20559;-77
2022/09/29 11:58:27;;;;;;;3.90;3.60;;;23.30;94.70;;;;;;5009879;28;20184;-77
2022/09/29 12:01:10;;;;;;;4.35;3.90;;;23.30;90.90;;;;;;4969786;28;20307;-77
2022/09/29 12:03:42;;;;;;;4.05;3.75;;;23.40;87.50;;;;;;5007498;28;20194;-77
2022/09/29 12:06:32;;;;;;;4.40;4.20;;;23.10;87.70;;;;;;5010832;28;20221;-76
2022/09/29 12:09:15;;;;;;;5.73;5.33;;;22.80;86.80;;;;;;5010952;28;20183;-76
2022/09/29 12:12:03;;;;;;;4.45;4.18;;;22.50;88.50;;;;;;5011192;28;20204;-77
2022/09/29 12:14:41;;;;;;;7.53;7.13;;;23.60;83.40;;;;;;5011252;28;20186;-76
2022/09/29 12:17:14;;;;;;;8.13;7.53;;;24.70;73.40;;;;;;5010912;28;20179;-76
2022/09/29 12:19:42;;;;;;;6.27;5.67;;;23.80;76.10;;;;;;5010942;28;20215;-76
2022/09/29 12:22:12;;;;;;;4.35;4.05;;;23.40;78.40;;;;;;5010018;28;20192;-78
2022/09/29 12:24:54;;;;;;;4.40;4.10;;;23.50;81.60;;;;;;5009880;28;20298;-77
2022/09/29 12:27:19;;;;;;;4.87;4.47;;;23.10;79.20;;;;;;5010808;28;20180;-78
2022/09/29 12:29:57;;;;;;;8.30;7.50;;;23.10;80.90;;;;;;5009837;28;20195;-77
2022/09/29 12:32:50;;;;;;;11.10;10.48;;;24.40;75.20;;;;;;5011040;28;20210;-77
2022/09/29 12:35:46;;;;;;;23.77;22.65;;;24.60;73.10;;;;;;5007370;28;20251;-76
2022/09/29 12:38:35;;;;;;;36.22;34.30;;;24.90;70.50;;;;;;4983575;28;20195;-76
2022/09/29 12:41:13;;;;;;;20.33;19.35;;;25.10;69.40;;;;;;5009702;28;20212;-76
2022/09/29 12:43:40;;;;;;;20.88;19.75;;;23.80;74.70;;;;;;5010856;28;20179;-76
2022/09/29 12:46:22;;;;;;;27.70;26.20;;;23.30;74.80;;;;;;5010827;28;20324;-76
2022/09/29 12:49:14;;;;;;;13.25;12.23;;;22.80;76.10;;;;;;5010519;28;20202;-76
2022/09/29 12:51:45;;;;;;;8.27;7.77;;;21.60;80.40;;;;;;5009457;28;20207;-76
2022/09/29 12:54:27;;;;;;;10.03;9.53;;;21.60;81.90;;;;;;5010880;28;20188;-76
2022/09/29 12:57:05;;;;;;;10.90;10.40;;;21.20;78.00;;;;;;5010514;28;20210;-76
2022/09/29 13:00:01;;;;;;;6.80;6.30;;;21.50;80.10;;;;;;5010577;28;20287;-76
2022/09/29 13:02:50;;;;;;;7.50;7.00;;;22.50;78.10;;;;;;5010729;28;20707;-77
2022/09/29 13:05:54;;;;;;;11.48;10.65;;;23.50;73.10;;;;;;4997019;28;20257;-77
2022/09/29 13:08:39;;;;;;;16.60;15.57;;;23.50;72.70;;;;;;5008106;28;20215;-77
2022/09/29 13:11:19;;;;;;;20.00;18.90;;;22.90;72.00;;;;;;5009485;28;20199;-77